createdAt,value
2022-10-08T00:00:54.184Z,21.62
2022-10-08T00:03:22.047Z,21.62
2022-10-08T00:05:49.856Z,21.60
2022-10-08T00:08:17.638Z,21.60
2022-10-08T00:10:45.505Z,21.60
2022-10-08T00:13:13.379Z,21.60
2022-10-08T00:15:41.793Z,21.59
2022-10-08T00:18:09.772Z,21.59
2022-10-08T00:20:37.605Z,21.59
2022-10-08T00:23:05.406Z,21.58
2022-10-08T00:25:33.200Z,21.57
2022-10-08T00:28:01.048Z,21.56
2022-10-08T00:30:28.839Z,21.56
2022-10-08T00:32:59.828Z,21.55
2022-10-08T00:35:27.868Z,21.55
2022-10-08T00:37:55.657Z,21.54
2022-10-08T00:59:17.207Z,21.46
2022-10-08T01:01:44.996Z,21.49
2022-10-08T01:04:12.935Z,21.51
2022-10-08T01:06:40.722Z,21.50
2022-10-08T01:09:14.089Z,21.50
2022-10-08T01:11:44.791Z,21.50
2022-10-08T01:14:12.539Z,21.51
2022-10-08T01:16:40.289Z,21.50
2022-10-08T01:19:08.169Z,21.50
2022-10-08T01:21:37.251Z,21.49
2022-10-08T01:24:05.223Z,21.49
2022-10-08T01:26:32.907Z,21.51
2022-10-08T01:29:03.057Z,21.50
2022-10-08T01:31:31.140Z,21.51
2022-10-08T01:33:59.386Z,21.51
2022-10-08T01:36:27.044Z,21.51
2022-10-08T01:38:54.742Z,21.49
2022-10-08T01:41:22.416Z,21.51
2022-10-08T01:43:50.091Z,21.50
2022-10-08T01:46:18.053Z,21.49
2022-10-08T01:48:45.822Z,21.50
2022-10-08T01:51:13.928Z,21.49
2022-10-08T01:53:41.780Z,21.49
2022-10-08T01:56:09.464Z,21.48
2022-10-08T01:58:37.269Z,21.49
2022-10-08T02:01:05.014Z,21.48
2022-10-08T02:03:32.773Z,21.49
2022-10-08T02:06:00.627Z,21.47
2022-10-08T02:08:28.328Z,21.45
2022-10-08T02:10:56.024Z,21.45
2022-10-08T02:13:23.729Z,21.46
2022-10-08T02:15:51.589Z,21.45
2022-10-08T02:18:19.397Z,21.45
2022-10-08T02:20:47.115Z,21.43
2022-10-08T02:23:15.093Z,21.44
2022-10-08T02:25:42.775Z,21.43
2022-10-08T02:28:10.682Z,21.44
2022-10-08T02:30:38.469Z,21.44
2022-10-08T02:33:06.204Z,21.44
2022-10-08T02:35:33.872Z,21.44
2022-10-08T02:38:01.533Z,21.47
2022-10-08T02:40:29.204Z,21.46
2022-10-08T02:42:57.165Z,21.46
2022-10-08T02:45:24.846Z,21.46
2022-10-08T02:47:52.746Z,21.45
2022-10-08T02:50:20.460Z,21.45
2022-10-08T02:52:48.442Z,21.47
2022-10-08T02:55:19.356Z,21.45
2022-10-08T02:57:47.042Z,21.45
2022-10-08T03:00:14.728Z,21.46
2022-10-08T03:02:42.487Z,21.47
2022-10-08T03:05:10.306Z,21.46
2022-10-08T03:07:38.050Z,21.45
2022-10-08T03:10:06.624Z,21.44
2022-10-08T03:12:34.301Z,21.44
2022-10-08T03:15:02.392Z,21.43
2022-10-08T03:17:30.700Z,21.44
2022-10-08T03:19:58.425Z,21.43
2022-10-08T03:22:26.105Z,21.45
2022-10-08T03:24:56.726Z,21.44
2022-10-08T03:27:24.656Z,21.44
2022-10-08T03:29:57.055Z,21.43
2022-10-08T03:32:24.761Z,21.44
2022-10-08T03:34:52.562Z,21.44
2022-10-08T03:37:20.253Z,21.43
2022-10-08T03:39:47.971Z,21.44
2022-10-08T03:42:15.669Z,21.43
2022-10-08T03:44:43.363Z,21.42
2022-10-08T03:47:11.069Z,21.43
2022-10-08T03:49:38.852Z,21.42
2022-10-08T03:52:06.638Z,21.42
2022-10-08T03:54:34.291Z,21.43
2022-10-08T03:57:02.006Z,21.43
2022-10-08T03:59:29.733Z,21.42
2022-10-08T04:01:57.391Z,21.42
2022-10-08T04:04:25.943Z,21.42
2022-10-08T04:06:53.828Z,21.41
2022-10-08T04:09:21.513Z,21.40
2022-10-08T04:11:49.215Z,21.40
2022-10-08T04:14:16.899Z,21.38
2022-10-08T04:16:44.801Z,21.40
2022-10-08T04:19:12.617Z,21.40
2022-10-08T04:21:40.335Z,21.39
2022-10-08T04:24:08.018Z,21.40
2022-10-08T04:26:35.735Z,21.39
2022-10-08T04:29:03.576Z,21.39
2022-10-08T04:31:33.510Z,21.39
2022-10-08T04:34:01.451Z,21.40
2022-10-08T04:36:29.142Z,21.40
2022-10-08T04:38:56.920Z,21.41
2022-10-08T04:41:24.807Z,21.39
2022-10-08T04:43:52.506Z,21.39
2022-10-08T04:46:20.246Z,21.58
2022-10-08T04:48:48.012Z,23.73
2022-10-08T04:51:15.658Z,27.16
2022-10-08T04:53:43.328Z,30.92
2022-10-08T04:56:11.057Z,33.41
2022-10-08T04:58:38.742Z,35.14
2022-10-08T05:01:06.466Z,36.25
2022-10-08T05:03:34.152Z,36.44
2022-10-08T05:06:01.864Z,36.17
2022-10-08T05:08:29.559Z,35.58
2022-10-08T05:10:57.333Z,34.86
2022-10-08T05:13:25.040Z,34.08
2022-10-08T05:15:52.815Z,33.35
2022-10-08T05:18:20.548Z,32.66
2022-10-08T05:20:48.233Z,31.97
2022-10-08T05:23:15.916Z,31.37
2022-10-08T05:25:43.881Z,30.69
2022-10-08T05:28:11.650Z,30.10
2022-10-08T05:30:39.397Z,29.56
2022-10-08T05:33:07.103Z,29.03
2022-10-08T05:35:34.919Z,28.63
2022-10-08T05:38:02.649Z,28.18
2022-10-08T05:40:30.841Z,27.69
2022-10-08T05:42:58.529Z,27.31
2022-10-08T05:45:26.250Z,26.91
2022-10-08T05:47:54.088Z,26.55
2022-10-08T05:50:22.171Z,26.27
2022-10-08T05:52:50.175Z,25.97
2022-10-08T05:55:18.117Z,25.71
2022-10-08T05:57:45.803Z,25.53
2022-10-08T06:00:13.507Z,25.31
2022-10-08T06:02:41.288Z,25.11
2022-10-08T06:05:09.180Z,24.92
2022-10-08T06:07:36.922Z,24.66
2022-10-08T06:10:04.612Z,24.52
2022-10-08T06:12:32.307Z,24.35
2022-10-08T06:15:00.003Z,24.21
2022-10-08T06:17:27.704Z,24.10
2022-10-08T06:19:55.417Z,24.00
2022-10-08T06:22:23.147Z,23.90
2022-10-08T06:24:50.817Z,23.90
2022-10-08T06:27:18.522Z,24.04
2022-10-08T06:29:46.242Z,24.13
2022-10-08T06:32:13.926Z,24.12
2022-10-08T06:34:42.242Z,24.09
2022-10-08T06:37:10.410Z,24.03
2022-10-08T06:39:38.171Z,23.97
2022-10-08T06:42:05.893Z,23.91
2022-10-08T06:44:33.594Z,23.87
2022-10-08T06:47:01.349Z,23.80
2022-10-08T06:49:29.058Z,23.76
2022-10-08T06:51:56.796Z,23.68
2022-10-08T06:54:26.257Z,23.60
2022-10-08T06:56:55.777Z,23.53
2022-10-08T06:59:23.469Z,23.48
2022-10-08T07:01:51.145Z,23.41
2022-10-08T07:04:18.882Z,23.32
2022-10-08T07:06:46.589Z,23.26
2022-10-08T07:09:14.284Z,23.22
2022-10-08T07:11:41.994Z,23.16
2022-10-08T07:14:09.685Z,23.11
2022-10-08T07:16:37.436Z,23.04
2022-10-08T07:19:05.175Z,22.99
2022-10-08T07:21:32.852Z,22.95
2022-10-08T07:24:00.767Z,22.90
2022-10-08T07:26:28.448Z,22.87
2022-10-08T07:28:56.297Z,22.85
2022-10-08T07:31:24.182Z,22.81
2022-10-08T07:33:51.950Z,22.76
2022-10-08T07:36:21.256Z,22.73
2022-10-08T07:38:49.113Z,22.72
2022-10-08T07:41:16.835Z,22.66
2022-10-08T07:43:44.546Z,22.61
2022-10-08T07:46:12.458Z,22.57
2022-10-08T07:48:40.271Z,22.49
2022-10-08T07:51:07.951Z,22.45
2022-10-08T07:53:35.649Z,22.44
2022-10-08T07:56:03.542Z,22.41
2022-10-08T07:58:31.326Z,22.39
2022-10-08T08:00:59.088Z,22.36
2022-10-08T08:03:26.812Z,22.35
2022-10-08T08:05:54.539Z,22.33
2022-10-08T08:08:23.496Z,22.30
2022-10-08T08:10:51.467Z,22.30
2022-10-08T08:13:19.187Z,22.29
2022-10-08T08:15:46.869Z,22.26
2022-10-08T08:18:14.836Z,22.25
2022-10-08T08:20:42.938Z,22.22
2022-10-08T08:23:10.622Z,22.22
2022-10-08T08:25:38.290Z,22.20
2022-10-08T08:28:06.126Z,22.20
2022-10-08T08:30:33.859Z,22.19
2022-10-08T08:33:01.645Z,22.17
2022-10-08T08:35:29.396Z,22.16
2022-10-08T08:37:57.099Z,22.17
2022-10-08T08:40:24.918Z,22.16
2022-10-08T08:42:52.603Z,22.15
2022-10-08T08:45:44.683Z,22.15
2022-10-08T08:48:08.039Z,22.12
2022-10-08T08:50:35.791Z,22.13
2022-10-08T08:53:03.611Z,22.14
2022-10-08T08:55:31.428Z,22.13
2022-10-08T08:57:59.156Z,22.14
2022-10-08T09:00:27.327Z,22.13
2022-10-08T09:02:55.107Z,22.11
2022-10-08T09:05:22.985Z,22.11
2022-10-08T09:07:51.321Z,22.12
2022-10-08T09:10:18.963Z,22.14
2022-10-08T09:12:47.039Z,22.12
2022-10-08T09:15:14.993Z,22.13
2022-10-08T09:17:42.725Z,22.17
2022-10-08T09:20:10.609Z,22.17
2022-10-08T09:22:38.336Z,22.16
2022-10-08T09:25:06.026Z,22.16
2022-10-08T09:27:33.782Z,22.15
2022-10-08T09:30:01.416Z,22.12
2022-10-08T09:32:29.082Z,22.10
2022-10-08T09:34:56.773Z,22.10
2022-10-08T09:37:24.432Z,22.10
2022-10-08T09:39:52.147Z,22.10
2022-10-08T09:42:19.876Z,22.10
2022-10-08T09:44:47.570Z,22.09
2022-10-08T09:47:15.229Z,22.10
2022-10-08T09:49:42.976Z,22.10
2022-10-08T09:52:13.535Z,22.11
2022-10-08T09:54:46.470Z,22.11
2022-10-08T09:57:14.161Z,22.13
2022-10-08T09:59:41.873Z,22.11
2022-10-08T10:02:10.197Z,22.11
2022-10-08T10:04:37.983Z,22.10
2022-10-08T10:07:05.681Z,22.08
2022-10-08T10:09:33.385Z,22.08
2022-10-08T10:12:01.186Z,22.10
2022-10-08T10:14:28.915Z,22.12
2022-10-08T10:16:56.605Z,22.11
2022-10-08T10:19:24.241Z,22.11
2022-10-08T10:21:52.678Z,22.11
2022-10-08T10:24:20.382Z,22.10
2022-10-08T10:26:48.080Z,22.11
2022-10-08T10:29:16.475Z,22.10
2022-10-08T10:31:44.472Z,22.09
2022-10-08T10:34:12.131Z,22.08
2022-10-08T10:36:39.801Z,22.09
2022-10-08T10:39:07.520Z,22.06
2022-10-08T10:41:35.230Z,22.05
2022-10-08T10:44:02.942Z,22.05
2022-10-08T10:46:30.751Z,22.05
2022-10-08T10:48:58.536Z,22.04
2022-10-08T10:51:28.356Z,22.05
2022-10-08T10:53:58.181Z,22.04
2022-10-08T10:56:25.845Z,22.05
2022-10-08T10:58:53.505Z,22.04
2022-10-08T11:01:21.695Z,22.04
2022-10-08T11:03:49.401Z,22.03
2022-10-08T11:06:17.172Z,22.01
2022-10-08T11:08:44.848Z,21.98
2022-10-08T11:11:12.513Z,21.99
2022-10-08T11:13:40.235Z,21.98
2022-10-08T11:16:07.993Z,21.99
2022-10-08T11:18:35.801Z,22.00
2022-10-08T11:21:03.463Z,21.97
2022-10-08T11:23:31.176Z,21.98
2022-10-08T11:28:46.663Z,21.96
2022-10-08T11:31:14.451Z,21.95
2022-10-08T11:33:42.152Z,21.93
2022-10-08T11:36:09.849Z,21.92
2022-10-08T11:38:37.616Z,21.91
2022-10-08T11:41:05.320Z,21.92
2022-10-08T11:43:33.083Z,21.91
2022-10-08T11:46:00.825Z,21.91
2022-10-08T11:48:28.537Z,21.91
2022-10-08T11:50:56.252Z,21.91
2022-10-08T11:53:24.032Z,21.91
2022-10-08T11:55:51.786Z,21.92
2022-10-08T11:58:21.175Z,21.94
2022-10-08T12:00:48.867Z,21.94
2022-10-08T12:03:16.732Z,21.97
2022-10-08T12:05:49.299Z,21.98
2022-10-08T12:08:18.018Z,21.98
2022-10-08T12:10:45.742Z,21.98
2022-10-08T12:13:17.576Z,21.99
2022-10-08T12:15:45.671Z,21.97
2022-10-08T12:18:13.705Z,21.96
2022-10-08T12:20:42.448Z,21.95
2022-10-08T12:23:10.112Z,21.96
2022-10-08T12:25:37.842Z,21.96
2022-10-08T12:28:05.633Z,21.93
2022-10-08T12:30:33.475Z,21.93
2022-10-08T12:33:01.163Z,21.93
2022-10-08T12:35:28.970Z,21.94
2022-10-08T12:37:56.611Z,21.92
2022-10-08T12:40:24.392Z,21.92
2022-10-08T12:42:52.074Z,21.92
2022-10-08T12:45:19.755Z,22.12
2022-10-08T12:47:47.676Z,22.65
2022-10-08T12:50:15.581Z,23.19
2022-10-08T12:52:43.274Z,23.42
2022-10-08T12:55:10.979Z,23.57
2022-10-08T12:57:38.790Z,23.68
2022-10-08T13:00:06.918Z,23.66
2022-10-08T13:02:34.575Z,23.63
2022-10-08T13:05:02.279Z,23.57
2022-10-08T13:07:30.101Z,23.49
2022-10-08T13:09:57.792Z,23.41
2022-10-08T13:12:25.495Z,23.47
2022-10-08T13:14:53.291Z,24.00
2022-10-08T13:17:21.320Z,24.32
2022-10-08T13:19:49.080Z,24.47
2022-10-08T13:22:16.778Z,24.54
2022-10-08T13:24:44.463Z,24.55
2022-10-08T13:27:12.248Z,24.51
2022-10-08T13:29:40.068Z,24.42
2022-10-08T13:32:07.842Z,24.34
2022-10-08T13:34:35.806Z,24.28
2022-10-08T13:37:03.665Z,24.16
2022-10-08T13:39:31.517Z,24.09
2022-10-08T13:41:59.513Z,24.02
2022-10-08T13:44:27.380Z,23.95
2022-10-08T13:46:57.962Z,23.83
2022-10-08T13:49:28.253Z,23.75
2022-10-08T13:51:56.180Z,23.68
2022-10-08T13:54:23.997Z,23.65
2022-10-08T13:56:51.823Z,23.61
2022-10-08T13:59:19.722Z,23.54
2022-10-08T14:01:47.581Z,23.57
2022-10-08T14:04:15.597Z,23.62
2022-10-08T14:06:43.513Z,23.57
2022-10-08T14:09:11.347Z,23.54
2022-10-08T14:11:41.395Z,23.48
2022-10-08T14:14:09.201Z,23.37
2022-10-08T14:16:37.166Z,23.31
2022-10-08T14:19:08.660Z,23.24
2022-10-08T14:21:39.262Z,23.17
2022-10-08T14:24:07.154Z,23.11
2022-10-08T14:26:34.978Z,23.03
2022-10-08T14:29:02.795Z,23.00
2022-10-08T14:31:30.656Z,22.93
2022-10-08T14:33:58.554Z,22.90
2022-10-08T14:36:26.475Z,22.83
2022-10-08T14:38:54.449Z,22.80
2022-10-08T14:41:22.342Z,22.75
2022-10-08T14:43:50.247Z,22.72
2022-10-08T14:46:18.584Z,22.67
2022-10-08T14:48:46.582Z,22.64
2022-10-08T14:51:14.507Z,22.60
2022-10-08T14:53:42.535Z,22.57
2022-10-08T14:56:12.751Z,22.52
2022-10-08T14:58:40.783Z,22.48
2022-10-08T15:01:08.591Z,22.45
2022-10-08T15:03:36.436Z,22.40
2022-10-08T15:06:04.232Z,22.43
2022-10-08T15:08:32.110Z,22.59
2022-10-08T15:11:00.218Z,22.82
2022-10-08T15:13:27.998Z,23.06
2022-10-08T15:15:55.893Z,23.27
2022-10-08T15:18:23.764Z,23.45
2022-10-08T15:20:51.572Z,23.62
2022-10-08T15:23:19.517Z,23.74
2022-10-08T15:25:47.364Z,23.84
2022-10-08T15:28:15.520Z,23.85
2022-10-08T15:30:44.500Z,23.85
2022-10-08T15:33:12.471Z,23.80
2022-10-08T15:35:40.337Z,23.72
2022-10-08T15:38:08.400Z,23.65
2022-10-08T15:40:36.377Z,23.57
2022-10-08T15:43:04.255Z,23.50
2022-10-08T15:45:38.100Z,23.40
2022-10-08T15:48:06.228Z,23.30
2022-10-08T15:50:34.099Z,23.22
2022-10-08T15:53:02.122Z,23.13
2022-10-08T15:55:30.019Z,23.08
2022-10-08T15:57:58.272Z,23.01
2022-10-08T16:00:26.142Z,22.96
2022-10-08T16:02:54.161Z,22.89
2022-10-08T16:05:22.044Z,22.84
2022-10-08T16:07:49.909Z,22.78
2022-10-08T16:10:17.916Z,22.71
2022-10-08T16:12:46.022Z,22.57
2022-10-08T16:15:14.116Z,22.57
2022-10-08T16:17:41.983Z,22.54
2022-10-08T16:20:10.032Z,22.53
2022-10-08T16:22:37.978Z,22.49
2022-10-08T16:25:05.930Z,22.46
2022-10-08T16:27:33.777Z,22.42
2022-10-08T16:30:01.847Z,22.39
2022-10-08T16:32:29.774Z,22.36
2022-10-08T16:34:57.691Z,22.34
2022-10-08T16:37:25.998Z,22.31
2022-10-08T16:39:54.012Z,22.27
2022-10-08T16:42:21.925Z,22.25
2022-10-08T16:44:49.880Z,22.23
2022-10-08T16:47:17.817Z,22.19
2022-10-08T16:49:46.738Z,22.18
2022-10-08T16:52:14.770Z,22.15
2022-10-08T16:54:42.683Z,22.25
2022-10-08T16:57:10.631Z,22.71
2022-10-08T16:59:38.971Z,23.36
2022-10-08T17:02:06.910Z,24.15
2022-10-08T17:04:39.250Z,24.84
2022-10-08T17:07:07.497Z,25.46
2022-10-08T17:09:35.540Z,25.84
2022-10-08T17:12:03.578Z,26.00
2022-10-08T17:14:33.262Z,26.00
2022-10-08T17:17:01.174Z,25.95
2022-10-08T17:19:29.201Z,25.82
2022-10-08T17:21:57.032Z,25.66
2022-10-08T17:24:24.927Z,25.50
2022-10-08T17:26:52.755Z,25.33
2022-10-08T17:29:20.768Z,25.21
2022-10-08T17:31:48.759Z,25.06
2022-10-08T17:34:16.677Z,24.93
2022-10-08T17:36:44.652Z,24.82
2022-10-08T17:39:12.731Z,24.66
2022-10-08T17:41:40.654Z,24.52
2022-10-08T17:44:08.530Z,24.38
2022-10-08T17:46:36.439Z,24.24
2022-10-08T17:49:04.930Z,24.12
2022-10-08T17:51:32.820Z,23.99
2022-10-08T17:54:00.798Z,23.90
2022-10-08T17:56:28.738Z,23.78
2022-10-08T17:58:56.663Z,23.68
2022-10-08T18:01:24.701Z,23.58
2022-10-08T18:03:52.610Z,23.51
2022-10-08T18:06:20.532Z,23.43
2022-10-08T18:08:48.455Z,23.34
2022-10-08T18:11:16.804Z,23.28
2022-10-08T18:13:44.728Z,23.20
2022-10-08T18:16:12.744Z,23.14
2022-10-08T18:18:40.874Z,23.06
2022-10-08T18:21:08.832Z,23.01
2022-10-08T18:23:36.770Z,22.94
2022-10-08T18:26:04.818Z,22.90
2022-10-08T18:28:32.805Z,22.86
2022-10-08T18:31:00.759Z,22.79
2022-10-08T18:33:28.730Z,22.75
2022-10-08T18:35:56.659Z,22.69
2022-10-08T18:38:24.566Z,22.66
2022-10-08T18:40:52.846Z,22.64
2022-10-08T18:43:20.748Z,22.61
2022-10-08T18:45:48.629Z,22.57
2022-10-08T18:48:16.529Z,22.62
2022-10-08T18:50:44.418Z,22.68
2022-10-08T18:53:12.416Z,22.71
2022-10-08T18:55:40.322Z,22.69
2022-10-08T18:58:08.165Z,22.68
2022-10-08T19:00:36.113Z,22.65
2022-10-08T19:03:04.974Z,22.63
2022-10-08T19:05:34.127Z,22.60
2022-10-08T19:08:02.092Z,22.55
2022-10-08T19:10:30.078Z,22.49
2022-10-08T19:12:57.951Z,22.44
2022-10-08T19:15:25.859Z,22.42
2022-10-08T19:17:53.755Z,22.39
2022-10-08T19:20:21.637Z,22.36
2022-10-08T19:22:49.831Z,22.33
2022-10-08T19:25:17.950Z,22.30
2022-10-08T19:27:45.960Z,22.27
2022-10-08T19:30:15.889Z,22.24
2022-10-08T19:32:43.793Z,22.22
2022-10-08T19:35:11.630Z,22.19
2022-10-08T19:37:39.471Z,22.16
2022-10-08T19:40:07.389Z,22.13
2022-10-08T19:42:35.276Z,22.12
2022-10-08T19:45:03.416Z,22.11
2022-10-08T19:47:31.340Z,22.09
2022-10-08T19:49:59.510Z,22.06
2022-10-08T19:52:27.627Z,22.04
2022-10-08T19:54:55.540Z,22.02
2022-10-08T19:57:23.422Z,22.00
2022-10-08T19:59:51.361Z,21.98
2022-10-08T20:02:19.246Z,21.96
2022-10-08T20:04:47.936Z,21.95
2022-10-08T20:07:15.830Z,21.93
2022-10-08T20:09:43.761Z,21.90
2022-10-08T20:12:11.810Z,21.89
2022-10-08T20:14:39.776Z,21.86
2022-10-08T20:17:08.064Z,21.85
2022-10-08T20:19:35.913Z,21.85
2022-10-08T20:22:05.731Z,21.82
2022-10-08T20:24:36.377Z,21.82
2022-10-08T20:27:04.315Z,21.80
2022-10-08T20:29:32.314Z,21.78
2022-10-08T20:32:00.943Z,21.77
2022-10-08T20:34:28.889Z,21.76
2022-10-08T20:36:58.148Z,21.75
2022-10-08T20:39:26.184Z,21.74
2022-10-08T20:41:53.978Z,21.73
2022-10-08T20:44:21.913Z,21.72
2022-10-08T20:46:50.194Z,21.70
2022-10-08T20:49:18.140Z,21.70
2022-10-08T20:51:45.997Z,21.67
2022-10-08T20:54:13.896Z,21.67
2022-10-08T20:56:41.834Z,21.65
2022-10-08T20:59:09.652Z,21.65
2022-10-08T21:01:37.797Z,21.63
2022-10-08T21:04:05.691Z,21.63
2022-10-08T21:06:36.714Z,21.60
2022-10-08T21:09:04.560Z,21.59
2022-10-08T21:11:32.420Z,21.59
2022-10-08T21:14:01.786Z,21.58
2022-10-08T21:16:29.816Z,21.59
2022-10-08T21:18:57.747Z,21.57
2022-10-08T21:21:25.677Z,21.55
2022-10-08T21:23:53.627Z,21.54
2022-10-08T21:26:21.639Z,21.54
2022-10-08T21:28:49.619Z,21.52
2022-10-08T21:31:17.666Z,21.51
2022-10-08T21:33:45.576Z,21.51
2022-10-08T21:36:13.685Z,21.50
2022-10-08T21:38:41.566Z,21.49
2022-10-08T21:41:17.339Z,21.49
2022-10-08T21:43:45.280Z,21.48
2022-10-08T21:46:13.497Z,21.46
2022-10-08T21:48:41.642Z,21.46
2022-10-08T21:51:09.444Z,21.45
2022-10-08T21:53:37.553Z,21.46
2022-10-08T21:56:10.295Z,21.44
2022-10-08T21:58:38.164Z,21.44
2022-10-08T22:01:06.203Z,21.43
2022-10-08T22:03:34.015Z,21.42
2022-10-08T22:06:01.864Z,21.41
2022-10-08T22:08:29.691Z,21.41
2022-10-08T22:10:57.540Z,21.40
2022-10-08T22:13:25.685Z,21.40
2022-10-08T22:15:53.619Z,21.39
2022-10-08T22:18:21.707Z,21.38
2022-10-08T22:20:49.505Z,21.38
2022-10-08T22:23:17.444Z,21.37
2022-10-08T22:25:45.499Z,21.37
2022-10-08T22:28:13.358Z,21.35
2022-10-08T22:30:41.228Z,21.34
2022-10-08T22:33:09.089Z,21.35
2022-10-08T22:35:36.912Z,21.34
2022-10-08T22:38:04.748Z,21.33
2022-10-08T22:40:32.643Z,21.34
2022-10-08T22:43:00.470Z,21.33
2022-10-08T22:45:28.467Z,21.33
2022-10-08T22:47:56.352Z,21.33
2022-10-08T22:50:24.244Z,21.31
2022-10-08T22:52:52.161Z,21.32
2022-10-08T22:55:20.943Z,21.31
2022-10-08T22:57:48.824Z,21.31
2022-10-08T23:00:16.631Z,21.30
2022-10-08T23:02:44.399Z,21.29
2022-10-08T23:05:12.418Z,21.29
2022-10-08T23:07:40.180Z,21.28
2022-10-08T23:10:08.319Z,21.27
2022-10-08T23:12:36.071Z,21.25
2022-10-08T23:15:03.866Z,21.28
2022-10-08T23:17:31.783Z,21.27
2022-10-08T23:19:59.615Z,21.27
2022-10-08T23:22:28.523Z,21.26
2022-10-08T23:24:56.379Z,21.25
2022-10-08T23:27:24.293Z,21.25
2022-10-08T23:29:52.175Z,21.24
2022-10-08T23:32:20.057Z,21.24
2022-10-08T23:34:47.857Z,21.23
2022-10-08T23:37:15.650Z,21.23
2022-10-08T23:39:43.537Z,21.22
2022-10-08T23:42:11.347Z,21.22
2022-10-08T23:44:39.161Z,21.22
2022-10-08T23:47:07.053Z,21.20
2022-10-08T23:49:34.838Z,21.21
2022-10-08T23:52:02.707Z,21.20
2022-10-08T23:54:30.525Z,21.17
2022-10-08T23:56:58.333Z,21.19
2022-10-08T23:59:26.172Z,21.19
